sensor_id;sensor_type;location;lat;lon;timestamp;pressure;altitude;pressure_sealevel;temperature;humidity
55656;BME280;41530;52.382;5.270;2022-09-09T00:04:32;100900.94;;;23.51;47.48
55656;BME280;41530;52.382;5.270;2022-09-09T00:07:15;100878.75;;;23.49;47.39
55656;BME280;41530;52.382;5.270;2022-09-09T00:15:41;100885.66;;;23.51;47.35
55656;BME280;41530;52.382;5.270;2022-09-09T00:21:11;100872.56;;;23.48;47.09
55656;BME280;41530;52.382;5.270;2022-09-09T00:23:50;100878.59;;;23.50;47.13
55656;BME280;41530;52.382;5.270;2022-09-09T00:26:40;100866.38;;;23.48;47.16
55656;BME280;41530;52.382;5.270;2022-09-09T00:31:48;100871.03;;;23.54;46.86
55656;BME280;41530;52.382;5.270;2022-09-09T00:34:21;100876.19;;;23.55;47.03
55656;BME280;41530;52.382;5.270;2022-09-09T00:36:50;100855.63;;;23.48;46.97
55656;BME280;41530;52.382;5.270;2022-09-09T00:39:43;100868.97;;;23.56;46.87
55656;BME280;41530;52.382;5.270;2022-09-09T00:42:17;100870.19;;;23.53;46.95
55656;BME280;41530;52.382;5.270;2022-09-09T00:44:56;100873.88;;;23.52;47.20
55656;BME280;41530;52.382;5.270;2022-09-09T00:47:44;100872.38;;;23.50;47.09
55656;BME280;41530;52.382;5.270;2022-09-09T00:50:30;100865.72;;;23.45;47.19
55656;BME280;41530;52.382;5.270;2022-09-09T00:53:22;100875.63;;;23.45;46.66
55656;BME280;41530;52.382;5.270;2022-09-09T00:58:32;100880.16;;;23.44;46.93
55656;BME280;41530;52.382;5.270;2022-09-09T01:01:09;100887.19;;;23.45;47.20
55656;BME280;41530;52.382;5.270;2022-09-09T01:03:45;100876.03;;;23.42;47.17
55656;BME280;41530;52.382;5.270;2022-09-09T01:06:23;100885.16;;;23.48;47.08
55656;BME280;41530;52.382;5.270;2022-09-09T01:17:05;100875.94;;;23.35;47.25
55656;BME280;41530;52.382;5.270;2022-09-09T01:19:49;100872.41;;;23.35;47.38
55656;BME280;41530;52.382;5.270;2022-09-09T01:27:56;100879.63;;;23.34;47.30
55656;BME280;41530;52.382;5.270;2022-09-09T01:30:25;100864.31;;;23.28;47.28
55656;BME280;41530;52.382;5.270;2022-09-09T01:32:56;100877.53;;;23.30;47.29
55656;BME280;41530;52.382;5.270;2022-09-09T01:35:39;100876.31;;;23.32;47.20
55656;BME280;41530;52.382;5.270;2022-09-09T01:38:07;100871.97;;;23.31;47.54
55656;BME280;41530;52.382;5.270;2022-09-09T01:40:34;100868.44;;;23.31;47.10
55656;BME280;41530;52.382;5.270;2022-09-09T01:43:02;100871.97;;;23.31;47.26
55656;BME280;41530;52.382;5.270;2022-09-09T01:45:29;100868.84;;;23.28;47.48
55656;BME280;41530;52.382;5.270;2022-09-09T01:47:57;100870.22;;;23.24;47.30
55656;BME280;41530;52.382;5.270;2022-09-09T01:50:23;100866.91;;;23.22;47.54
55656;BME280;41530;52.382;5.270;2022-09-09T01:52:53;100860.88;;;23.20;47.40
55656;BME280;41530;52.382;5.270;2022-09-09T01:55:30;100859.22;;;23.19;47.76
55656;BME280;41530;52.382;5.270;2022-09-09T01:58:34;100853.84;;;23.19;47.58
55656;BME280;41530;52.382;5.270;2022-09-09T02:03:53;100850.28;;;23.12;47.42
55656;BME280;41530;52.382;5.270;2022-09-09T02:06:36;100843.59;;;23.07;47.90
55656;BME280;41530;52.382;5.270;2022-09-09T02:09:10;100853.88;;;23.04;47.82
55656;BME280;41530;52.382;5.270;2022-09-09T02:11:38;100846.88;;;23.03;47.59
55656;BME280;41530;52.382;5.270;2022-09-09T02:14:14;100865.44;;;23.04;47.88
55656;BME280;41530;52.382;5.270;2022-09-09T02:16:44;100851.19;;;23.04;47.51
55656;BME280;41530;52.382;5.270;2022-09-09T02:19:18;100851.19;;;23.04;47.55
55656;BME280;41530;52.382;5.270;2022-09-09T02:21:50;100851.59;;;23.01;47.43
55656;BME280;41530;52.382;5.270;2022-09-09T02:24:17;100860.00;;;22.98;47.76
55656;BME280;41530;52.382;5.270;2022-09-09T02:26:46;100855.66;;;22.97;47.58
55656;BME280;41530;52.382;5.270;2022-09-09T02:29:18;100850.28;;;22.97;47.62
55656;BME280;41530;52.382;5.270;2022-09-09T02:31:47;100847.16;;;22.93;47.70
55656;BME280;41530;52.382;5.270;2022-09-09T02:34:18;100855.84;;;22.95;47.98
55656;BME280;41530;52.382;5.270;2022-09-09T02:36:46;100848.34;;;22.91;47.55
55656;BME280;41530;52.382;5.270;2022-09-09T02:39:14;100850.41;;;22.89;47.77
55656;BME280;41530;52.382;5.270;2022-09-09T02:41:41;100850.13;;;22.84;47.80
55656;BME280;41530;52.382;5.270;2022-09-09T02:44:16;100857.16;;;22.85;48.25
55656;BME280;41530;52.382;5.270;2022-09-09T02:47:13;100851.50;;;22.80;48.17
55656;BME280;41530;52.382;5.270;2022-09-09T02:55:37;100851.69;;;22.63;48.70
55656;BME280;41530;52.382;5.270;2022-09-09T02:58:07;100853.91;;;22.60;47.89
55656;BME280;41530;52.382;5.270;2022-09-09T03:00:35;100853.72;;;22.61;48.07
55656;BME280;41530;52.382;5.270;2022-09-09T03:03:06;100844.44;;;22.64;48.38
55656;BME280;41530;52.382;5.270;2022-09-09T03:05:33;100849.63;;;22.65;48.01
55656;BME280;41530;52.382;5.270;2022-09-09T03:07:59;100853.78;;;22.68;48.24
55656;BME280;41530;52.382;5.270;2022-09-09T03:10:26;100839.72;;;22.66;48.06
55656;BME280;41530;52.382;5.270;2022-09-09T03:12:52;100848.25;;;22.69;48.18
55656;BME280;41530;52.382;5.270;2022-09-09T03:15:19;100838.28;;;22.63;47.94
55656;BME280;41530;52.382;5.270;2022-09-09T03:17:45;100843.44;;;22.65;47.80
55656;BME280;41530;52.382;5.270;2022-09-09T03:20:12;100834.94;;;22.61;47.82
55656;BME280;41530;52.382;5.270;2022-09-09T03:22:39;100834.66;;;22.56;47.80
55656;BME280;41530;52.382;5.270;2022-09-09T03:25:06;100840.38;;;22.53;48.28
55656;BME280;41530;52.382;5.270;2022-09-09T03:27:33;100841.59;;;22.51;48.24
55656;BME280;41530;52.382;5.270;2022-09-09T03:29:59;100840.78;;;22.50;48.06
55656;BME280;41530;52.382;5.270;2022-09-09T03:32:26;100837.63;;;22.47;48.03
55656;BME280;41530;52.382;5.270;2022-09-09T03:34:53;100839.47;;;22.46;48.31
55656;BME280;41530;52.382;5.270;2022-09-09T03:37:19;100838.53;;;22.39;48.77
55656;BME280;41530;52.382;5.270;2022-09-09T03:39:46;100836.59;;;22.33;48.60
55656;BME280;41530;52.382;5.270;2022-09-09T03:42:13;100831.50;;;22.23;48.37
55656;BME280;41530;52.382;5.270;2022-09-09T03:44:40;100835.00;;;22.24;48.48
55656;BME280;41530;52.382;5.270;2022-09-09T03:47:08;100840.91;;;22.19;48.41
55656;BME280;41530;52.382;5.270;2022-09-09T03:49:34;100839.13;;;22.12;48.77
55656;BME280;41530;52.382;5.270;2022-09-09T03:52:01;100842.75;;;22.04;49.38
55656;BME280;41530;52.382;5.270;2022-09-09T03:54:27;100845.25;;;21.97;48.95
55656;BME280;41530;52.382;5.270;2022-09-09T03:56:54;100835.09;;;21.93;48.96
55656;BME280;41530;52.382;5.270;2022-09-09T03:59:20;100842.19;;;21.86;49.57
55656;BME280;41530;52.382;5.270;2022-09-09T04:01:47;100843.56;;;21.82;49.40
55656;BME280;41530;52.382;5.270;2022-09-09T04:04:14;100834.22;;;21.78;49.63
55656;BME280;41530;52.382;5.270;2022-09-09T04:06:41;100839.59;;;21.78;49.82
55656;BME280;41530;52.382;5.270;2022-09-09T04:09:07;100831.41;;;21.71;49.55
55656;BME280;41530;52.382;5.270;2022-09-09T04:11:34;100836.50;;;21.66;49.85
55656;BME280;41530;52.382;5.270;2022-09-09T04:14:00;100830.00;;;21.60;49.88
55656;BME280;41530;52.382;5.270;2022-09-09T04:16:27;100821.69;;;21.55;49.94
55656;BME280;41530;52.382;5.270;2022-09-09T04:18:53;100822.72;;;21.54;49.87
55656;BME280;41530;52.382;5.270;2022-09-09T04:21:20;100826.75;;;21.50;49.87
55656;BME280;41530;52.382;5.270;2022-09-09T04:23:47;100823.41;;;21.48;50.03
55656;BME280;41530;52.382;5.270;2022-09-09T04:26:14;100821.72;;;21.47;50.13
55656;BME280;41530;52.382;5.270;2022-09-09T04:28:40;100807.69;;;21.45;50.13
55656;BME280;41530;52.382;5.270;2022-09-09T04:31:08;100820.25;;;21.45;49.91
55656;BME280;41530;52.382;5.270;2022-09-09T04:33:35;100812.59;;;21.42;49.98
55656;BME280;41530;52.382;5.270;2022-09-09T04:36:06;100807.75;;;21.37;50.13
55656;BME280;41530;52.382;5.270;2022-09-09T04:38:33;100817.28;;;21.40;50.26
55656;BME280;41530;52.382;5.270;2022-09-09T04:41:00;100811.09;;;21.39;50.17
55656;BME280;41530;52.382;5.270;2022-09-09T04:43:26;100809.09;;;21.41;49.84
55656;BME280;41530;52.382;5.270;2022-09-09T04:45:53;100801.06;;;21.41;50.09
55656;BME280;41530;52.382;5.270;2022-09-09T04:48:20;100805.00;;;21.45;49.94
55656;BME280;41530;52.382;5.270;2022-09-09T04:51:08;100803.56;;;21.43;51.00
55656;BME280;41530;52.382;5.270;2022-09-09T04:53:36;100807.41;;;21.40;49.75
55656;BME280;41530;52.382;5.270;2022-09-09T04:58:33;100800.91;;;21.34;50.03
55656;BME280;41530;52.382;5.270;2022-09-09T05:01:04;100801.75;;;21.35;50.18
55656;BME280;41530;52.382;5.270;2022-09-09T05:03:31;100802.75;;;21.34;50.20
55656;BME280;41530;52.382;5.270;2022-09-09T05:06:09;100796.13;;;21.30;50.77
55656;BME280;41530;52.382;5.270;2022-09-09T05:08:38;100802.81;;;21.26;50.15
55656;BME280;41530;52.382;5.270;2022-09-09T05:13:45;100793.97;;;21.17;50.10
55656;BME280;41530;52.382;5.270;2022-09-09T05:16:13;100798.81;;;21.22;50.12
55656;BME280;41530;52.382;5.270;2022-09-09T05:18:40;100796.31;;;21.20;50.08
55656;BME280;41530;52.382;5.270;2022-09-09T05:21:10;100807.00;;;21.28;50.41
55656;BME280;41530;52.382;5.270;2022-09-09T05:23:37;100805.16;;;21.29;50.38
55656;BME280;41530;52.382;5.270;2022-09-09T05:26:04;100802.47;;;21.29;50.31
55656;BME280;41530;52.382;5.270;2022-09-09T05:28:34;100810.19;;;21.24;50.52
55656;BME280;41530;52.382;5.270;2022-09-09T05:31:04;100815.22;;;21.19;50.15
55656;BME280;41530;52.382;5.270;2022-09-09T05:33:31;100806.88;;;21.14;50.22
55656;BME280;41530;52.382;5.270;2022-09-09T05:36:01;100804.72;;;21.09;50.71
55656;BME280;41530;52.382;5.270;2022-09-09T05:38:30;100801.72;;;21.04;50.62
55656;BME280;41530;52.382;5.270;2022-09-09T05:40:56;100804.91;;;21.08;50.42
55656;BME280;41530;52.382;5.270;2022-09-09T05:43:24;100789.41;;;21.03;50.66
55656;BME280;41530;52.382;5.270;2022-09-09T05:46:06;100810.06;;;21.09;51.06
55656;BME280;41530;52.382;5.270;2022-09-09T05:48:39;100803.53;;;21.12;50.91
55656;BME280;41530;52.382;5.270;2022-09-09T05:51:09;100804.38;;;21.12;50.68
55656;BME280;41530;52.382;5.270;2022-09-09T05:53:38;100813.38;;;21.19;50.43
55656;BME280;41530;52.382;5.270;2022-09-09T05:56:07;100810.38;;;21.22;50.27
55656;BME280;41530;52.382;5.270;2022-09-09T05:58:34;100804.50;;;21.27;50.12
55656;BME280;41530;52.382;5.270;2022-09-09T06:01:12;100799.41;;;21.32;51.34
55656;BME280;41530;52.382;5.270;2022-09-09T06:03:41;100803.31;;;21.29;50.95
55656;BME280;41530;52.382;5.270;2022-09-09T06:06:16;100798.81;;;21.22;51.51
55656;BME280;41530;52.382;5.270;2022-09-09T06:08:44;100805.19;;;21.21;50.94
55656;BME280;41530;52.382;5.270;2022-09-09T06:11:17;100811.19;;;21.23;51.09
55656;BME280;41530;52.382;5.270;2022-09-09T06:13:43;100822.72;;;21.23;50.82
55656;BME280;41530;52.382;5.270;2022-09-09T06:16:16;100812.88;;;21.24;50.78
55656;BME280;41530;52.382;5.270;2022-09-09T06:18:43;100817.03;;;21.26;50.52
55656;BME280;41530;52.382;5.270;2022-09-09T06:21:30;100816.69;;;21.29;51.71
55656;BME280;41530;52.382;5.270;2022-09-09T06:23:59;100806.44;;;21.33;51.08
55656;BME280;41530;52.382;5.270;2022-09-09T06:26:31;100806.75;;;21.38;51.07
55656;BME280;41530;52.382;5.270;2022-09-09T06:28:59;100806.75;;;21.38;50.48
55656;BME280;41530;52.382;5.270;2022-09-09T06:31:28;100807.69;;;21.45;50.97
55656;BME280;41530;52.382;5.270;2022-09-09T06:33:58;100808.84;;;21.51;50.75
55656;BME280;41530;52.382;5.270;2022-09-09T06:36:27;100790.75;;;21.53;51.35
55656;BME280;41530;52.382;5.270;2022-09-09T06:38:54;100796.94;;;21.53;51.11
55656;BME280;41530;52.382;5.270;2022-09-09T06:41:24;100798.63;;;21.54;51.23
55656;BME280;41530;52.382;5.270;2022-09-09T06:43:52;100795.56;;;21.57;51.30
55656;BME280;41530;52.382;5.270;2022-09-09T06:46:21;100789.41;;;21.57;50.88
55656;BME280;41530;52.382;5.270;2022-09-09T06:48:48;100792.53;;;21.60;50.91
55656;BME280;41530;52.382;5.270;2022-09-09T06:51:17;100785.69;;;21.58;50.53
55656;BME280;41530;52.382;5.270;2022-09-09T06:53:45;100784.78;;;21.65;51.16
55656;BME280;41530;52.382;5.270;2022-09-09T06:56:27;100795.59;;;21.72;51.30
55656;BME280;41530;52.382;5.270;2022-09-09T06:58:56;100791.91;;;21.73;51.04
55656;BME280;41530;52.382;5.270;2022-09-09T07:01:28;100791.56;;;21.76;50.95
55656;BME280;41530;52.382;5.270;2022-09-09T07:03:56;100794.91;;;21.78;50.38
55656;BME280;41530;52.382;5.270;2022-09-09T07:06:27;100800.72;;;21.82;50.94
55656;BME280;41530;52.382;5.270;2022-09-09T07:08:56;100803.50;;;21.88;50.44
55656;BME280;41530;52.382;5.270;2022-09-09T07:11:26;100784.47;;;21.98;50.01
55656;BME280;41530;52.382;5.270;2022-09-09T07:13:57;100795.44;;;22.11;49.99
55656;BME280;41530;52.382;5.270;2022-09-09T07:16:24;100788.16;;;22.20;50.05
55656;BME280;41530;52.382;5.270;2022-09-09T07:18:52;100785.31;;;22.21;50.42
55656;BME280;41530;52.382;5.270;2022-09-09T07:21:19;100792.13;;;22.24;49.97
55656;BME280;41530;52.382;5.270;2022-09-09T07:23:47;100789.25;;;22.25;49.86
55656;BME280;41530;52.382;5.270;2022-09-09T07:26:15;100778.63;;;22.17;50.09
55656;BME280;41530;52.382;5.270;2022-09-09T07:28:43;100783.63;;;22.20;50.06
55656;BME280;41530;52.382;5.270;2022-09-09T07:31:30;100785.97;;;22.23;50.27
55656;BME280;41530;52.382;5.270;2022-09-09T07:33:58;100789.66;;;22.22;49.91
55656;BME280;41530;52.382;5.270;2022-09-09T07:36:28;100785.84;;;22.17;50.37
55656;BME280;41530;52.382;5.270;2022-09-09T07:39:02;100788.00;;;22.21;50.29
55656;BME280;41530;52.382;5.270;2022-09-09T07:41:34;100786.75;;;22.24;50.28
55656;BME280;41530;52.382;5.270;2022-09-09T07:44:09;100798.13;;;22.26;50.58
55656;BME280;41530;52.382;5.270;2022-09-09T07:46:37;100793.44;;;22.28;50.59
55656;BME280;41530;52.382;5.270;2022-09-09T07:49:06;100781.03;;;22.27;50.60
55656;BME280;41530;52.382;5.270;2022-09-09T07:51:35;100788.72;;;22.30;49.99
55656;BME280;41530;52.382;5.270;2022-09-09T07:54:05;100805.09;;;22.35;50.23
55656;BME280;41530;52.382;5.270;2022-09-09T07:56:32;100806.75;;;22.36;50.02
55656;BME280;41530;52.382;5.270;2022-09-09T07:58:59;100799.06;;;22.33;50.31
55656;BME280;41530;52.382;5.270;2022-09-09T08:01:29;100805.91;;;22.35;50.03
55656;BME280;41530;52.382;5.270;2022-09-09T08:04:01;100796.41;;;22.33;50.27
55656;BME280;41530;52.382;5.270;2022-09-09T08:06:34;100792.94;;;22.24;50.35
55656;BME280;41530;52.382;5.270;2022-09-09T08:09:01;100797.78;;;22.29;50.14
55656;BME280;41530;52.382;5.270;2022-09-09T08:11:29;100809.69;;;22.26;50.39
55656;BME280;41530;52.382;5.270;2022-09-09T08:14:03;100807.19;;;22.25;50.22
55656;BME280;41530;52.382;5.270;2022-09-09T08:16:32;100808.50;;;22.29;50.37
55656;BME280;41530;52.382;5.270;2022-09-09T08:18:59;100809.31;;;22.29;50.19
55656;BME280;41530;52.382;5.270;2022-09-09T08:21:28;100815.88;;;22.27;50.34
55656;BME280;41530;52.382;5.270;2022-09-09T08:23:56;100807.00;;;22.26;50.04
55656;BME280;41530;52.382;5.270;2022-09-09T08:26:32;100814.59;;;22.23;50.29
55656;BME280;41530;52.382;5.270;2022-09-09T08:29:02;100811.09;;;22.22;49.88
55656;BME280;41530;52.382;5.270;2022-09-09T08:31:34;100804.06;;;22.21;50.01
55656;BME280;41530;52.382;5.270;2022-09-09T08:34:02;100804.06;;;22.21;49.94
55656;BME280;41530;52.382;5.270;2022-09-09T08:36:32;100804.91;;;22.22;50.31
55656;BME280;41530;52.382;5.270;2022-09-09T08:39:00;100805.06;;;22.20;50.25
55656;BME280;41530;52.382;5.270;2022-09-09T08:45:00;100818.75;;;22.25;50.69
55656;BME280;41530;52.382;5.270;2022-09-09T08:47:54;100814.78;;;22.21;50.63
55656;BME280;41530;52.382;5.270;2022-09-09T08:50:35;100825.94;;;22.25;50.51
55656;BME280;41530;52.382;5.270;2022-09-09T08:55:47;100819.66;;;22.18;50.18
55656;BME280;41530;52.382;5.270;2022-09-09T09:03:43;100822.44;;;22.10;50.68
55656;BME280;41530;52.382;5.270;2022-09-09T09:09:06;100828.97;;;22.07;49.89
55656;BME280;41530;52.382;5.270;2022-09-09T09:11:39;100835.34;;;22.06;49.87
55656;BME280;41530;52.382;5.270;2022-09-09T09:16:51;100829.53;;;22.02;50.38
55656;BME280;41530;52.382;5.270;2022-09-09T09:19:19;100838.06;;;21.98;49.96
55656;BME280;41530;52.382;5.270;2022-09-09T09:22:03;100833.91;;;21.95;50.46
55656;BME280;41530;52.382;5.270;2022-09-09T09:27:55;100840.66;;;21.91;49.93
55656;BME280;41530;52.382;5.270;2022-09-09T09:30:26;100837.97;;;21.91;50.59
55656;BME280;41530;52.382;5.270;2022-09-09T09:35:26;100838.88;;;21.98;50.22
55656;BME280;41530;52.382;5.270;2022-09-09T09:37:52;100842.75;;;22.04;49.95
55656;BME280;41530;52.382;5.270;2022-09-09T09:40:52;100836.00;;;22.08;50.55
55656;BME280;41530;52.382;5.270;2022-09-09T09:43:32;100831.09;;;22.12;50.34
55656;BME280;41530;52.382;5.270;2022-09-09T09:45:59;100840.63;;;22.14;50.09
55656;BME280;41530;52.382;5.270;2022-09-09T09:48:42;100838.25;;;22.19;49.73
55656;BME280;41530;52.382;5.270;2022-09-09T09:51:11;100844.25;;;22.21;50.08
55656;BME280;41530;52.382;5.270;2022-09-09T09:53:41;100847.03;;;22.28;49.93
55656;BME280;41530;52.382;5.270;2022-09-09T09:56:11;100853.88;;;22.30;50.12
55656;BME280;41530;52.382;5.270;2022-09-09T10:01:29;100842.78;;;22.33;50.36
55656;BME280;41530;52.382;5.270;2022-09-09T10:03:59;100824.38;;;22.30;49.74
55656;BME280;41530;52.382;5.270;2022-09-09T10:06:31;100840.59;;;22.37;49.86
55656;BME280;41530;52.382;5.270;2022-09-09T10:08:59;100831.25;;;22.33;49.87
55656;BME280;41530;52.382;5.270;2022-09-09T10:18:04;100837.16;;;22.43;49.73
55656;BME280;41530;52.382;5.270;2022-09-09T10:21:06;100828.94;;;22.45;50.12
55656;BME280;41530;52.382;5.270;2022-09-09T10:26:33;100843.63;;;22.49;50.14
55656;BME280;41530;52.382;5.270;2022-09-09T10:35:02;100833.34;;;22.52;49.46
55656;BME280;41530;52.382;5.270;2022-09-09T10:40:41;100839.56;;;22.53;49.61
55656;BME280;41530;52.382;5.270;2022-09-09T10:43:25;100835.31;;;22.58;49.42
55656;BME280;41530;52.382;5.270;2022-09-09T10:47:00;100832.09;;;22.63;49.42
55656;BME280;41530;52.382;5.270;2022-09-09T10:49:11;100827.16;;;22.66;49.33
55656;BME280;41530;52.382;5.270;2022-09-09T10:54:31;100822.09;;;22.71;49.43
55656;BME280;41530;52.382;5.270;2022-09-09T10:57:10;100829.59;;;22.76;49.27
55656;BME280;41530;52.382;5.270;2022-09-09T10:59:41;100827.06;;;22.74;49.69
55656;BME280;41530;52.382;5.270;2022-09-09T11:04:43;100823.75;;;22.72;49.35
55656;BME280;41530;52.382;5.270;2022-09-09T11:07:12;100828.09;;;22.73;49.89
55656;BME280;41530;52.382;5.270;2022-09-09T11:09:50;100825.22;;;22.75;49.38
55656;BME280;41530;52.382;5.270;2022-09-09T11:12:23;100812.66;;;22.75;49.51
55656;BME280;41530;52.382;5.270;2022-09-09T11:15:04;100825.50;;;22.80;49.43
55656;BME280;41530;52.382;5.270;2022-09-09T11:17:46;100813.59;;;22.83;49.47
55656;BME280;41530;52.382;5.270;2022-09-09T11:20:15;100814.41;;;22.83;49.27
55656;BME280;41530;52.382;5.270;2022-09-09T11:22:44;100819.41;;;22.86;49.77
55656;BME280;41530;52.382;5.270;2022-09-09T11:25:25;100822.28;;;22.85;50.17
55656;BME280;41530;52.382;5.270;2022-09-09T11:30:50;100820.44;;;22.85;49.72
55656;BME280;41530;52.382;5.270;2022-09-09T11:36:35;100819.41;;;22.86;49.95
55656;BME280;41530;52.382;5.270;2022-09-09T11:41:51;100818.59;;;22.86;49.54
55656;BME280;41530;52.382;5.270;2022-09-09T11:44:29;100810.91;;;22.83;49.99
55656;BME280;41530;52.382;5.270;2022-09-09T11:46:56;100817.56;;;22.87;49.60
55656;BME280;41530;52.382;5.270;2022-09-09T11:49:28;100812.84;;;22.89;50.41
55656;BME280;41530;52.382;5.270;2022-09-09T11:51:57;100809.88;;;22.84;50.00
55656;BME280;41530;52.382;5.270;2022-09-09T11:54:34;100812.03;;;22.88;50.11
55656;BME280;41530;52.382;5.270;2022-09-09T11:57:24;100805.63;;;22.89;50.18
55656;BME280;41530;52.382;5.270;2022-09-09T11:59:52;100812.44;;;22.92;49.84
55656;BME280;41530;52.382;5.270;2022-09-09T12:02:24;100807.09;;;22.92;50.16
55656;BME280;41530;52.382;5.270;2022-09-09T12:05:18;100809.59;;;22.93;50.32
55656;BME280;41530;52.382;5.270;2022-09-09T12:07:53;100794.91;;;22.89;49.99
55656;BME280;41530;52.382;5.270;2022-09-09T12:10:27;100797.84;;;22.94;50.26
55656;BME280;41530;52.382;5.270;2022-09-09T12:13:08;100801.34;;;22.95;50.24
55656;BME280;41530;52.382;5.270;2022-09-09T12:15:47;100788.31;;;22.92;50.25
55656;BME280;41530;52.382;5.270;2022-09-09T12:18:45;100788.31;;;22.92;50.49
55656;BME280;41530;52.382;5.270;2022-09-09T12:21:34;100793.31;;;22.95;50.42
55656;BME280;41530;52.382;5.270;2022-09-09T12:24:09;100793.94;;;22.97;50.36
55656;BME280;41530;52.382;5.270;2022-09-09T12:32:26;100802.84;;;22.97;50.07
55656;BME280;41530;52.382;5.270;2022-09-09T12:34:59;100801.16;;;22.96;50.00
55656;BME280;41530;52.382;5.270;2022-09-09T12:39:59;100802.47;;;23.00;50.27
55656;BME280;41530;52.382;5.270;2022-09-09T12:42:28;100798.31;;;22.98;50.11
55656;BME280;41530;52.382;5.270;2022-09-09T12:45:00;100795.25;;;23.01;50.37
55656;BME280;41530;52.382;5.270;2022-09-09T12:47:48;100789.03;;;23.00;50.18
55656;BME280;41530;52.382;5.270;2022-09-09T12:50:21;100792.81;;;23.06;50.21
55656;BME280;41530;52.382;5.270;2022-09-09T12:52:51;100797.16;;;23.07;50.11
55656;BME280;41530;52.382;5.270;2022-09-09T12:55:21;100796.97;;;23.08;50.04
55656;BME280;41530;52.382;5.270;2022-09-09T12:57:51;100801.31;;;23.09;50.05
55656;BME280;41530;52.382;5.270;2022-09-09T13:00:23;100795.75;;;23.11;50.40
55656;BME280;41530;52.382;5.270;2022-09-09T13:02:51;100800.13;;;23.12;49.99
55656;BME280;41530;52.382;5.270;2022-09-09T13:05:38;100802.63;;;23.14;50.37
55656;BME280;41530;52.382;5.270;2022-09-09T13:08:11;100798.06;;;23.14;50.27
55656;BME280;41530;52.382;5.270;2022-09-09T13:10:50;100781.69;;;23.09;50.47
55656;BME280;41530;52.382;5.270;2022-09-09T13:13:34;100800.75;;;23.14;50.54
55656;BME280;41530;52.382;5.270;2022-09-09T13:16:03;100785.78;;;23.05;50.11
55656;BME280;41530;52.382;5.270;2022-09-09T13:18:34;100788.91;;;23.08;50.26
55656;BME280;41530;52.382;5.270;2022-09-09T13:21:01;100800.13;;;23.12;50.26
55656;BME280;41530;52.382;5.270;2022-09-09T13:23:30;100795.75;;;23.11;50.28
55656;BME280;41530;52.382;5.270;2022-09-09T13:25:59;100795.75;;;23.11;49.85
55656;BME280;41530;52.382;5.270;2022-09-09T13:28:28;100795.13;;;23.09;50.25
55656;BME280;41530;52.382;5.270;2022-09-09T13:31:01;100794.75;;;23.12;50.26
55656;BME280;41530;52.382;5.270;2022-09-09T13:33:34;100785.03;;;23.11;50.44
55656;BME280;41530;52.382;5.270;2022-09-09T13:36:08;100792.06;;;23.12;50.59
55656;BME280;41530;52.382;5.270;2022-09-09T13:38:52;100789.56;;;23.10;50.35
55656;BME280;41530;52.382;5.270;2022-09-09T13:41:21;100786.88;;;23.10;50.33
55656;BME280;41530;52.382;5.270;2022-09-09T13:43:50;100792.25;;;23.10;50.49
55656;BME280;41530;52.382;5.270;2022-09-09T13:46:38;100792.25;;;23.10;50.92
55656;BME280;41530;52.382;5.270;2022-09-09T13:51:41;100795.13;;;23.09;50.83
55656;BME280;41530;52.382;5.270;2022-09-09T13:54:10;100773.97;;;22.99;50.21
55656;BME280;41530;52.382;5.270;2022-09-09T13:56:38;100786.69;;;23.12;50.31
55656;BME280;41530;52.382;5.270;2022-09-09T13:59:09;100799.09;;;23.13;50.11
55656;BME280;41530;52.382;5.270;2022-09-09T14:01:37;100794.56;;;23.14;50.29
55656;BME280;41530;52.382;5.270;2022-09-09T14:04:04;100788.38;;;23.13;50.29
55656;BME280;41530;52.382;5.270;2022-09-09T14:06:34;100789.84;;;23.16;50.52
55656;BME280;41530;52.382;5.270;2022-09-09T14:09:07;100796.88;;;23.17;50.37
55656;BME280;41530;52.382;5.270;2022-09-09T14:11:34;100793.34;;;23.16;50.49
55656;BME280;41530;52.382;5.270;2022-09-09T14:14:01;100776.91;;;23.04;50.45
55656;BME280;41530;52.382;5.270;2022-09-09T14:16:28;100789.63;;;23.17;50.38
55656;BME280;41530;52.382;5.270;2022-09-09T14:18:55;100793.97;;;23.18;50.64
55656;BME280;41530;52.382;5.270;2022-09-09T14:21:26;100785.09;;;23.18;50.59
55656;BME280;41530;52.382;5.270;2022-09-09T14:23:52;100793.97;;;23.18;50.34
55656;BME280;41530;52.382;5.270;2022-09-09T14:26:22;100783.25;;;23.18;50.81
55656;BME280;41530;52.382;5.270;2022-09-09T14:28:50;100786.94;;;23.17;50.46
55656;BME280;41530;52.382;5.270;2022-09-09T14:31:22;100785.31;;;23.16;50.41
55656;BME280;41530;52.382;5.270;2022-09-09T14:33:48;100776.59;;;23.14;50.54
55656;BME280;41530;52.382;5.270;2022-09-09T14:36:15;100790.44;;;23.18;50.47
55656;BME280;41530;52.382;5.270;2022-09-09T14:38:41;100785.31;;;23.16;50.33
55656;BME280;41530;52.382;5.270;2022-09-09T14:41:10;100784.25;;;23.17;50.36
55656;BME280;41530;52.382;5.270;2022-09-09T14:43:40;100778.88;;;23.17;50.65
55656;BME280;41530;52.382;5.270;2022-09-09T14:46:08;100782.41;;;23.18;50.61
55656;BME280;41530;52.382;5.270;2022-09-09T14:48:36;100784.91;;;23.19;50.32
55656;BME280;41530;52.382;5.270;2022-09-09T14:53:33;100783.88;;;23.20;50.07
55656;BME280;41530;52.382;5.270;2022-09-09T14:56:05;100777.88;;;23.18;50.19
55656;BME280;41530;52.382;5.270;2022-09-09T14:58:32;100774.16;;;23.19;50.01
55656;BME280;41530;52.382;5.270;2022-09-09T15:01:03;100789.25;;;23.20;50.55
55656;BME280;41530;52.382;5.270;2022-09-09T15:03:30;100774.31;;;23.11;50.15
55656;BME280;41530;52.382;5.270;2022-09-09T15:05:57;100778.69;;;23.19;50.43
55656;BME280;41530;52.382;5.270;2022-09-09T15:08:24;100777.88;;;23.18;50.49
55656;BME280;41530;52.382;5.270;2022-09-09T15:10:59;100779.94;;;23.16;50.71